Time;durP1;ratioP1;P1;durP2;ratioP2;P2;SDS_P1;SDS_P2;PMS_P1;PMS_P2;Temp;Humidity;BMP_temperature;BMP_pressure;BME280_temperature;BME280_humidity;BME280_pressure;Samples;Min_cycle;Max_cycle;Signal;HPM_P1;HPM_P2
2021/11/23 00:00:15;;;;;;;8.40;5.57;;;9.60;68.30;;;;;;4995721;28;20038;-69
2021/11/23 00:02:42;;;;;;;7.43;5.33;;;9.60;68.70;;;;;;4996078;28;20080;-69
2021/11/23 00:05:10;;;;;;;13.10;7.57;;;9.50;69.30;;;;;;4995928;28;20053;-69
2021/11/23 00:07:35;;;;;;;10.70;6.77;;;9.50;69.10;;;;;;4995907;28;20475;-70
2021/11/23 00:10:02;;;;;;;8.47;5.20;;;9.50;69.10;;;;;;4995825;28;20041;-69
2021/11/23 00:12:28;;;;;;;12.40;8.10;;;9.50;68.70;;;;;;4995644;28;20026;-69
2021/11/23 00:14:53;;;;;;;7.80;5.37;;;9.40;68.80;;;;;;4995670;28;20030;-69
2021/11/23 00:17:19;;;;;;;7.60;5.57;;;9.30;68.00;;;;;;4995997;28;20156;-70
2021/11/23 00:19:45;;;;;;;7.70;5.07;;;9.20;68.70;;;;;;4995835;28;20023;-69
2021/11/23 00:22:11;;;;;;;7.93;4.97;;;9.20;69.00;;;;;;4995528;28;20029;-70
2021/11/23 00:24:37;;;;;;;7.10;4.70;;;9.30;68.90;;;;;;4995380;28;20049;-70
2021/11/23 00:27:04;;;;;;;6.07;4.23;;;9.30;69.00;;;;;;4995519;28;20413;-70
2021/11/23 00:29:30;;;;;;;5.17;3.87;;;9.30;68.60;;;;;;4995413;28;20109;-70
2021/11/23 00:31:55;;;;;;;5.43;4.03;;;9.30;68.10;;;;;;4995843;28;20390;-70
2021/11/23 00:34:21;;;;;;;5.63;4.00;;;9.30;68.70;;;;;;4995561;28;20030;-69
2021/11/23 00:36:47;;;;;;;5.77;3.70;;;9.30;68.80;;;;;;4995333;28;20078;-69
2021/11/23 00:39:13;;;;;;;6.17;3.93;;;9.30;68.30;;;;;;4995130;28;20132;-70
2021/11/23 00:41:39;;;;;;;5.00;3.23;;;9.30;67.70;;;;;;4995231;28;20383;-69
2021/11/23 00:44:05;;;;;;;4.43;3.27;;;9.30;67.30;;;;;;4995124;28;20034;-70
2021/11/23 00:46:30;;;;;;;4.27;3.27;;;9.30;67.60;;;;;;4995371;28;20471;-70
2021/11/23 00:48:56;;;;;;;5.13;3.07;;;9.20;67.10;;;;;;4995141;28;20018;-69
2021/11/23 00:51:22;;;;;;;5.93;3.60;;;9.30;67.20;;;;;;4995237;28;20031;-70
2021/11/23 00:53:47;;;;;;;4.97;3.40;;;9.30;66.90;;;;;;4994718;28;20026;-69
2021/11/23 00:56:13;;;;;;;4.53;3.30;;;9.30;66.90;;;;;;4995255;28;20027;-69
2021/11/23 00:58:39;;;;;;;4.53;3.30;;;9.30;66.90;;;;;;4995004;28;20038;-69
2021/11/23 01:01:05;;;;;;;4.97;3.03;;;9.30;66.80;;;;;;4994657;28;20391;-70
2021/11/23 01:03:32;;;;;;;9.07;3.57;;;9.30;66.80;;;;;;4994670;28;20149;-70
2021/11/23 01:05:59;;;;;;;4.60;3.10;;;9.30;67.10;;;;;;4994856;28;20022;-69
2021/11/23 01:08:27;;;;;;;6.10;3.60;;;9.40;67.10;;;;;;4994807;28;20029;-70
2021/11/23 01:10:54;;;;;;;4.53;3.50;;;9.40;67.00;;;;;;4994613;28;20479;-69
2021/11/23 01:13:20;;;;;;;5.03;3.03;;;9.40;67.40;;;;;;4994816;28;20074;-69
2021/11/23 01:15:46;;;;;;;4.07;2.97;;;9.40;67.30;;;;;;4994689;28;20076;-69
2021/11/23 01:18:12;;;;;;;6.13;3.00;;;9.40;66.60;;;;;;4994306;28;20050;-69
2021/11/23 01:20:38;;;;;;;4.03;2.90;;;9.40;67.00;;;;;;4994661;28;20033;-71
2021/11/23 01:23:04;;;;;;;5.97;3.33;;;9.40;66.80;;;;;;4994463;28;20022;-69
2021/11/23 01:25:30;;;;;;;4.17;3.03;;;9.40;67.00;;;;;;4994615;28;20026;-70
2021/11/23 01:27:57;;;;;;;4.90;3.40;;;9.40;67.10;;;;;;4994338;28;20022;-70
2021/11/23 01:30:23;;;;;;;3.90;2.80;;;9.40;67.30;;;;;;4994686;28;20030;-69
2021/11/23 01:32:48;;;;;;;4.37;2.90;;;9.40;66.80;;;;;;4994340;28;20034;-69
2021/11/23 01:35:16;;;;;;;4.70;2.97;;;9.50;66.00;;;;;;4994423;28;20022;-69
2021/11/23 01:37:43;;;;;;;4.57;3.10;;;9.50;65.60;;;;;;4994217;28;20375;-69
2021/11/23 01:40:11;;;;;;;5.03;2.83;;;9.60;66.00;;;;;;4994123;28;20479;-69
2021/11/23 01:42:37;;;;;;;5.67;3.10;;;9.60;66.10;;;;;;4992803;28;20046;-69
2021/11/23 01:45:04;;;;;;;7.47;3.17;;;9.60;66.50;;;;;;4994155;28;20038;-69
2021/11/23 01:47:30;;;;;;;4.93;2.97;;;9.60;66.50;;;;;;4994214;28;20018;-70
2021/11/23 01:49:56;;;;;;;4.43;3.03;;;9.60;66.70;;;;;;4994144;28;20540;-69
2021/11/23 01:52:23;;;;;;;5.60;3.30;;;9.60;66.60;;;;;;4993895;28;20030;-69
2021/11/23 01:54:49;;;;;;;5.00;3.30;;;9.60;66.40;;;;;;4994140;28;20491;-70
2021/11/23 01:57:16;;;;;;;4.30;2.50;;;9.60;66.40;;;;;;4994127;28;20018;-70
2021/11/23 01:59:43;;;;;;;3.57;2.57;;;9.60;66.60;;;;;;4990495;28;20529;-69
2021/11/23 02:02:09;;;;;;;6.40;3.00;;;9.50;66.60;;;;;;4991251;28;20073;-69
2021/11/23 02:04:35;;;;;;;4.10;2.67;;;9.60;66.50;;;;;;4991840;28;20519;-70
2021/11/23 02:07:00;;;;;;;4.27;2.60;;;9.50;66.70;;;;;;4993556;28;20479;-69
2021/11/23 02:09:26;;;;;;;8.27;3.20;;;9.50;67.30;;;;;;4993662;28;20030;-70
2021/11/23 02:11:52;;;;;;;6.83;2.83;;;9.50;67.10;;;;;;4993405;28;20368;-69
2021/11/23 02:14:19;;;;;;;4.27;2.93;;;9.50;66.70;;;;;;4993568;28;20037;-70
2021/11/23 02:16:45;;;;;;;4.87;3.00;;;9.40;67.10;;;;;;4993716;28;20093;-69
2021/11/23 02:19:11;;;;;;;7.50;3.60;;;9.40;67.80;;;;;;4993736;28;20494;-69
2021/11/23 02:21:37;;;;;;;3.70;2.97;;;9.40;67.60;;;;;;4993302;28;20026;-69
2021/11/23 02:24:03;;;;;;;5.30;3.10;;;9.30;66.90;;;;;;4993493;28;20026;-70
2021/11/23 02:26:29;;;;;;;4.27;3.00;;;9.30;67.30;;;;;;4993436;28;20141;-69
2021/11/23 02:28:56;;;;;;;3.67;2.60;;;9.30;67.70;;;;;;4993128;28;20449;-69
2021/11/23 02:31:22;;;;;;;3.40;2.80;;;9.30;68.30;;;;;;4993498;28;20026;-69
2021/11/23 02:33:47;;;;;;;3.70;2.50;;;9.20;67.80;;;;;;4993725;28;20033;-70
2021/11/23 02:36:13;;;;;;;4.20;2.70;;;9.20;68.40;;;;;;4993345;28;20030;-69
2021/11/23 02:38:40;;;;;;;4.17;2.77;;;9.20;67.20;;;;;;4993386;28;20359;-69
2021/11/23 02:41:09;;;;;;;5.23;3.23;;;9.10;67.50;;;;;;4993188;28;20027;-69
2021/11/23 02:43:35;;;;;;;5.87;3.27;;;9.10;68.20;;;;;;4993007;28;20034;-69
2021/11/23 02:46:01;;;;;;;5.83;2.93;;;9.10;68.40;;;;;;4993268;28;20398;-69
2021/11/23 02:48:26;;;;;;;4.47;2.77;;;9.00;68.40;;;;;;4993526;28;20113;-69
2021/11/23 02:51:07;;;;;;;4.00;2.77;;;9.10;68.90;;;;;;4993054;28;20460;-69
2021/11/23 02:53:33;;;;;;;4.23;2.73;;;9.10;68.00;;;;;;4992930;28;20034;-69
2021/11/23 02:56:00;;;;;;;3.50;2.57;;;9.00;68.50;;;;;;4993404;28;20055;-69
2021/11/23 02:58:26;;;;;;;3.47;2.33;;;9.00;68.40;;;;;;4993303;28;20054;-69
2021/11/23 03:00:52;;;;;;;3.53;2.53;;;9.00;69.10;;;;;;4993024;28;20061;-69
2021/11/23 03:03:18;;;;;;;3.60;2.60;;;9.00;69.10;;;;;;4993222;28;20387;-69
2021/11/23 03:05:44;;;;;;;3.30;2.57;;;9.00;69.20;;;;;;4993197;28;20038;-69
2021/11/23 03:08:10;;;;;;;3.53;2.60;;;9.00;70.00;;;;;;4993468;28;20041;-69
2021/11/23 03:10:36;;;;;;;3.77;2.17;;;9.00;68.90;;;;;;4993423;28;20113;-69
2021/11/23 03:13:02;;;;;;;3.40;2.07;;;9.00;69.10;;;;;;4993055;28;20165;-69
2021/11/23 03:15:29;;;;;;;4.30;2.53;;;8.90;69.10;;;;;;4994916;28;20030;-69
2021/11/23 03:17:56;;;;;;;3.43;2.23;;;8.90;68.60;;;;;;4997061;28;20030;-69
2021/11/23 03:20:23;;;;;;;2.83;2.13;;;8.90;69.10;;;;;;4996929;28;20073;-69
2021/11/23 03:22:50;;;;;;;3.93;2.47;;;8.90;69.30;;;;;;4996845;28;20053;-69
2021/11/23 03:25:17;;;;;;;4.77;2.53;;;8.90;69.30;;;;;;4996554;28;20462;-68
2021/11/23 03:27:43;;;;;;;8.27;2.80;;;8.90;69.50;;;;;;4996498;28;20073;-70
2021/11/23 03:30:12;;;;;;;5.07;2.20;;;8.90;68.40;;;;;;4996441;28;20033;-69
2021/11/23 03:32:37;;;;;;;3.77;2.80;;;8.90;69.30;;;;;;4996612;28;20517;-69
2021/11/23 03:35:04;;;;;;;4.10;2.27;;;8.90;69.20;;;;;;4979080;28;20023;-69
2021/11/23 03:37:30;;;;;;;3.80;2.47;;;8.90;69.00;;;;;;4996426;28;20034;-69
2021/11/23 03:39:57;;;;;;;5.27;2.30;;;8.90;69.10;;;;;;4996432;28;20034;-69
2021/11/23 03:42:23;;;;;;;2.93;1.90;;;8.90;69.30;;;;;;4996499;28;20475;-69
2021/11/23 03:44:50;;;;;;;3.23;2.37;;;8.80;69.40;;;;;;4996213;28;20038;-69
2021/11/23 03:47:17;;;;;;;6.13;2.43;;;8.80;69.50;;;;;;4996474;28;20061;-69
2021/11/23 03:49:46;;;;;;;3.70;2.20;;;8.80;69.30;;;;;;4996140;28;20033;-69
2021/11/23 03:52:13;;;;;;;8.27;2.30;;;8.90;69.80;;;;;;4995000;28;20026;-70
2021/11/23 03:54:38;;;;;;;3.27;2.10;;;8.90;69.40;;;;;;4996264;28;20026;-69
2021/11/23 03:57:05;;;;;;;3.97;2.30;;;8.80;69.60;;;;;;4996441;28;20150;-69
2021/11/23 03:59:30;;;;;;;2.60;2.03;;;8.80;69.90;;;;;;4995815;28;20038;-69
2021/11/23 04:01:56;;;;;;;3.87;2.20;;;8.90;69.60;;;;;;4995973;28;20030;-69
2021/11/23 04:04:22;;;;;;;3.03;2.10;;;8.90;69.80;;;;;;4996029;28;20521;-69
2021/11/23 04:06:48;;;;;;;2.90;2.10;;;8.80;70.00;;;;;;4996134;28;20034;-69
2021/11/23 04:09:14;;;;;;;2.77;1.83;;;8.80;69.40;;;;;;4996174;28;20042;-69
2021/11/23 04:11:39;;;;;;;3.37;2.33;;;8.80;69.40;;;;;;4996034;28;20043;-69
2021/11/23 04:14:05;;;;;;;2.80;1.97;;;8.70;69.70;;;;;;4995729;28;20069;-70
2021/11/23 04:16:31;;;;;;;5.57;2.27;;;8.80;70.00;;;;;;4995990;28;20030;-69
2021/11/23 04:18:57;;;;;;;3.00;2.10;;;8.80;70.30;;;;;;4995825;28;20030;-70
2021/11/23 04:21:23;;;;;;;3.23;2.27;;;8.80;70.30;;;;;;4995325;28;20034;-69
2021/11/23 04:23:49;;;;;;;3.03;2.20;;;8.80;70.10;;;;;;4978174;28;20490;-69
2021/11/23 04:26:15;;;;;;;2.77;1.97;;;8.80;69.90;;;;;;4995636;28;20049;-69
2021/11/23 04:28:41;;;;;;;2.53;2.03;;;8.90;69.80;;;;;;4995531;28;20030;-69
2021/11/23 04:31:07;;;;;;;4.40;2.40;;;8.90;69.60;;;;;;4995651;28;20066;-69
2021/11/23 04:33:34;;;;;;;4.50;2.10;;;8.80;68.90;;;;;;4995532;28;20065;-69
2021/11/23 04:36:02;;;;;;;4.37;2.30;;;8.80;69.80;;;;;;4995240;28;20021;-69
2021/11/23 04:38:28;;;;;;;3.47;2.13;;;8.80;69.20;;;;;;4995534;28;20023;-69
2021/11/23 04:40:54;;;;;;;3.50;1.70;;;8.80;69.70;;;;;;4995415;28;20049;-69
2021/11/23 04:43:19;;;;;;;3.30;2.10;;;8.90;69.30;;;;;;4995443;28;20023;-69
2021/11/23 04:45:45;;;;;;;4.63;2.37;;;8.90;69.50;;;;;;4995297;28;20042;-69
2021/11/23 04:48:11;;;;;;;2.43;1.80;;;8.90;69.50;;;;;;4995380;28;20029;-69
2021/11/23 04:50:37;;;;;;;3.20;2.30;;;8.90;69.10;;;;;;4995405;28;20026;-69
2021/11/23 04:53:03;;;;;;;3.00;1.90;;;8.90;69.30;;;;;;4995167;28;20104;-69
2021/11/23 04:55:30;;;;;;;3.07;2.20;;;8.90;69.00;;;;;;4995370;28;20023;-69
2021/11/23 04:57:56;;;;;;;3.87;2.27;;;8.90;69.30;;;;;;4995012;28;20077;-69
2021/11/23 05:00:22;;;;;;;4.17;2.23;;;8.90;68.30;;;;;;4993745;28;20050;-70
2021/11/23 05:02:47;;;;;;;9.20;3.17;;;8.90;68.80;;;;;;4993786;28;20037;-69
2021/11/23 05:05:14;;;;;;;2.93;1.87;;;8.90;69.00;;;;;;4994975;28;20041;-70
2021/11/23 05:07:41;;;;;;;2.80;2.07;;;8.90;69.00;;;;;;4994799;28;20081;-69
2021/11/23 05:10:09;;;;;;;3.77;2.50;;;8.90;68.10;;;;;;4994688;28;20030;-69
2021/11/23 05:12:35;;;;;;;5.43;2.17;;;8.90;68.80;;;;;;4994847;28;20022;-70
2021/11/23 05:15:01;;;;;;;5.13;2.40;;;8.90;68.70;;;;;;4994774;28;20029;-70
2021/11/23 05:17:27;;;;;;;4.97;2.90;;;8.80;67.90;;;;;;4994815;28;20050;-69
2021/11/23 05:19:53;;;;;;;3.23;2.47;;;8.80;67.40;;;;;;4994681;28;20061;-69
2021/11/23 05:22:18;;;;;;;2.73;2.03;;;8.80;68.10;;;;;;4994731;28;20050;-69
2021/11/23 05:24:44;;;;;;;3.60;2.40;;;8.90;68.30;;;;;;4994420;28;20158;-69
2021/11/23 05:27:10;;;;;;;4.60;2.30;;;8.90;68.10;;;;;;4994434;28;20041;-69
2021/11/23 05:29:36;;;;;;;6.03;2.40;;;8.90;67.80;;;;;;4994258;28;20034;-70
2021/11/23 05:32:02;;;;;;;3.33;2.13;;;8.90;67.80;;;;;;4994631;28;20455;-70
2021/11/23 05:34:28;;;;;;;7.87;2.20;;;8.90;68.10;;;;;;4994335;28;20065;-69
2021/11/23 05:36:54;;;;;;;2.87;1.97;;;8.90;68.10;;;;;;4994070;28;20037;-69
2021/11/23 05:39:20;;;;;;;3.53;1.93;;;8.90;67.70;;;;;;4992417;28;20390;-69
2021/11/23 05:41:46;;;;;;;4.50;2.20;;;8.90;67.80;;;;;;4994194;28;20030;-69
2021/11/23 05:44:12;;;;;;;4.53;2.40;;;8.80;67.40;;;;;;4993839;28;20388;-69
2021/11/23 05:46:39;;;;;;;2.83;1.87;;;8.90;66.90;;;;;;4993844;28;20022;-69
2021/11/23 05:49:05;;;;;;;3.70;2.23;;;8.80;66.90;;;;;;4993976;28;20109;-71
2021/11/23 05:51:31;;;;;;;3.30;2.07;;;8.80;67.20;;;;;;4994027;28;20035;-69
2021/11/23 05:53:57;;;;;;;3.27;2.20;;;8.90;67.20;;;;;;4994178;28;20372;-69
2021/11/23 05:56:23;;;;;;;4.43;2.20;;;8.90;66.80;;;;;;4993981;28;20471;-68
2021/11/23 05:58:49;;;;;;;3.77;2.53;;;8.90;67.20;;;;;;4993994;28;20038;-69
2021/11/23 06:01:15;;;;;;;4.63;2.27;;;8.90;67.30;;;;;;4993682;28;20054;-69
2021/11/23 06:03:41;;;;;;;3.30;2.13;;;8.90;66.70;;;;;;4993564;28;20030;-69
2021/11/23 06:06:08;;;;;;;8.90;2.20;;;8.90;66.60;;;;;;4993820;28;20513;-69
2021/11/23 06:08:33;;;;;;;3.00;2.27;;;8.90;67.10;;;;;;4992811;28;20038;-69
2021/11/23 06:10:59;;;;;;;5.63;2.30;;;8.90;67.10;;;;;;4994436;28;20493;-69
2021/11/23 06:13:25;;;;;;;4.97;2.47;;;8.80;67.40;;;;;;4993891;28;20085;-69
2021/11/23 06:15:51;;;;;;;3.63;2.30;;;8.80;67.40;;;;;;4993649;28;20027;-69
2021/11/23 06:18:17;;;;;;;3.53;2.20;;;8.80;67.00;;;;;;4993620;28;20023;-70
2021/11/23 06:20:44;;;;;;;3.97;2.40;;;8.80;66.90;;;;;;4993706;28;20499;-69
2021/11/23 06:23:12;;;;;;;5.73;2.67;;;8.80;67.30;;;;;;4993691;28;20027;-69
2021/11/23 06:25:38;;;;;;;5.20;2.70;;;8.70;66.90;;;;;;4993286;28;20046;-69
2021/11/23 06:28:04;;;;;;;3.43;2.20;;;8.70;67.40;;;;;;4993642;28;20149;-69
2021/11/23 06:30:31;;;;;;;4.77;2.47;;;8.70;67.30;;;;;;4993240;28;20034;-69
2021/11/23 06:32:57;;;;;;;3.43;2.00;;;8.70;67.10;;;;;;4993300;28;20034;-69
2021/11/23 06:35:23;;;;;;;3.10;1.80;;;8.70;66.30;;;;;;4993568;28;20081;-69
2021/11/23 06:37:49;;;;;;;2.20;1.70;;;8.80;65.20;;;;;;4993450;28;20034;-69
2021/11/23 06:40:14;;;;;;;3.63;2.33;;;8.80;64.40;;;;;;4993511;28;20387;-69
2021/11/23 06:42:40;;;;;;;4.20;2.00;;;8.90;64.50;;;;;;4993061;28;20382;-69
2021/11/23 06:45:07;;;;;;;3.77;2.00;;;8.90;64.30;;;;;;4993758;28;20045;-70
2021/11/23 06:47:33;;;;;;;3.70;2.00;;;8.90;64.50;;;;;;4993527;28;20030;-69
2021/11/23 06:49:59;;;;;;;3.67;2.27;;;8.90;63.20;;;;;;4995991;28;20386;-69
2021/11/23 06:52:25;;;;;;;5.40;2.30;;;8.90;63.30;;;;;;4996989;28;20030;-70
2021/11/23 06:54:51;;;;;;;12.87;4.17;;;8.90;63.50;;;;;;4997360;28;20019;-69
2021/11/23 06:57:18;;;;;;;6.10;2.80;;;8.90;64.00;;;;;;4997392;28;20060;-69
2021/11/23 06:59:47;;;;;;;49.40;6.93;;;9.00;64.50;;;;;;4996644;28;20395;-69
2021/11/23 07:02:13;;;;;;;18.23;4.00;;;9.00;64.90;;;;;;4979405;28;20057;-69
2021/11/23 07:04:38;;;;;;;23.33;3.70;;;9.00;65.40;;;;;;4997129;28;20506;-69
2021/11/23 07:07:05;;;;;;;18.13;4.07;;;9.00;65.60;;;;;;4997070;28;20018;-69
2021/11/23 07:09:31;;;;;;;16.37;3.50;;;9.10;66.10;;;;;;4996830;28;20541;-69
2021/11/23 07:11:56;;;;;;;13.77;3.53;;;9.00;65.70;;;;;;4996835;28;20050;-69
2021/11/23 07:14:22;;;;;;;30.40;4.50;;;9.10;66.20;;;;;;4997003;28;20077;-69
2021/11/23 07:16:49;;;;;;;18.87;3.83;;;9.10;66.80;;;;;;4996795;28;20031;-69
2021/11/23 07:19:15;;;;;;;14.73;4.27;;;9.10;67.30;;;;;;4996613;28;20576;-69
2021/11/23 07:21:41;;;;;;;20.10;3.80;;;9.10;67.20;;;;;;4996589;28;20026;-69
2021/11/23 07:24:08;;;;;;;20.47;3.70;;;9.10;67.80;;;;;;4994801;28;20022;-72
2021/11/23 07:26:34;;;;;;;31.97;5.90;;;9.10;68.20;;;;;;4996473;28;20037;-74
2021/11/23 07:29:02;;;;;;;26.73;4.73;;;9.10;67.60;;;;;;4996526;28;20050;-69
2021/11/23 07:31:28;;;;;;;29.43;4.90;;;9.20;67.80;;;;;;5012258;28;20033;-70
2021/11/23 07:33:54;;;;;;;15.63;3.77;;;9.20;68.50;;;;;;5015651;28;20089;-76
2021/11/23 07:36:22;;;;;;;42.20;4.70;;;9.30;68.00;;;;;;4987401;28;20451;-77
2021/11/23 07:38:49;;;;;;;36.00;5.37;;;9.40;67.50;;;;;;5014616;28;20045;-72
2021/11/23 07:41:15;;;;;;;17.10;3.87;;;9.40;67.40;;;;;;5016002;28;20029;-70
2021/11/23 07:43:41;;;;;;;22.03;4.37;;;9.50;67.20;;;;;;5016336;28;20133;-70
2021/11/23 07:46:07;;;;;;;6.23;2.60;;;9.60;67.10;;;;;;5016112;28;20049;-70
2021/11/23 07:48:33;;;;;;;18.03;2.60;;;9.70;66.20;;;;;;4998320;28;20052;-70
2021/11/23 07:50:59;;;;;;;6.47;2.10;;;9.70;65.80;;;;;;5015491;28;20467;-70
2021/11/23 07:53:25;;;;;;;4.57;2.23;;;9.80;65.80;;;;;;5015583;28;20034;-70
2021/11/23 07:55:51;;;;;;;4.40;2.40;;;9.90;65.50;;;;;;5015526;28;20022;-70
2021/11/23 07:58:17;;;;;;;7.13;2.43;;;10.00;65.00;;;;;;5015761;28;20026;-70
2021/11/23 08:00:43;;;;;;;5.33;2.40;;;10.00;64.50;;;;;;5014393;28;20049;-70
2021/11/23 08:03:11;;;;;;;4.13;2.20;;;10.00;64.60;;;;;;5013986;28;20084;-70
2021/11/23 08:05:37;;;;;;;7.45;1.90;;;10.10;64.30;;;;;;5015284;28;20038;-69
2021/11/23 08:08:05;;;;;;;3.43;2.17;;;10.10;63.20;;;;;;5015680;28;20022;-70
2021/11/23 08:10:32;;;;;;;2.50;2.00;;;10.20;62.80;;;;;;5015815;28;20119;-71
2021/11/23 08:12:58;;;;;;;4.28;2.10;;;10.30;63.50;;;;;;5015415;28;20030;-70
2021/11/23 08:15:24;;;;;;;5.50;2.33;;;10.30;62.50;;;;;;5014605;28;20100;-70
2021/11/23 08:17:51;;;;;;;5.47;2.00;;;10.40;62.20;;;;;;5014369;28;20133;-70
2021/11/23 08:20:16;;;;;;;7.07;2.30;;;10.50;61.80;;;;;;5015357;28;20133;-70
2021/11/23 08:22:43;;;;;;;4.10;2.53;;;10.50;61.60;;;;;;5015575;28;20063;-70
2021/11/23 08:25:09;;;;;;;5.82;2.40;;;10.60;61.50;;;;;;5015391;28;20080;-70
2021/11/23 08:27:35;;;;;;;4.18;2.40;;;10.60;61.60;;;;;;5015345;28;20025;-70
2021/11/23 08:30:06;;;;;;;3.42;2.20;;;10.60;61.80;;;;;;5015073;28;20030;-70
2021/11/23 08:32:31;;;;;;;4.43;1.98;;;10.70;61.60;;;;;;5015362;28;20037;-70
2021/11/23 08:34:57;;;;;;;4.32;2.40;;;10.70;61.00;;;;;;5015160;28;20033;-70
2021/11/23 08:37:26;;;;;;;3.50;2.40;;;10.70;60.60;;;;;;5015206;28;20116;-69
2021/11/23 08:39:55;;;;;;;3.80;2.45;;;10.80;60.00;;;;;;5014915;28;20418;-69
2021/11/23 08:42:22;;;;;;;4.88;2.45;;;10.80;59.90;;;;;;5013412;28;20030;-69
2021/11/23 08:44:48;;;;;;;3.30;2.47;;;10.90;59.50;;;;;;4996568;28;20030;-70
2021/11/23 08:47:15;;;;;;;3.55;2.42;;;10.90;59.40;;;;;;5014158;28;20018;-69
2021/11/23 08:49:42;;;;;;;3.90;2.38;;;10.90;58.60;;;;;;5013181;28;20026;-70
2021/11/23 08:52:08;;;;;;;5.28;2.40;;;11.00;59.30;;;;;;5006223;28;20160;-69
2021/11/23 08:54:34;;;;;;;4.18;2.10;;;11.00;59.30;;;;;;4994502;28;20483;-70
2021/11/23 08:57:05;;;;;;;6.45;2.28;;;11.00;58.70;;;;;;4994785;28;20026;-69
2021/11/23 08:59:33;;;;;;;3.08;2.05;;;11.10;58.60;;;;;;4994688;28;20476;-69
2021/11/23 09:02:00;;;;;;;5.55;2.58;;;11.10;58.80;;;;;;4994346;28;20044;-69
2021/11/23 09:04:26;;;;;;;3.75;2.42;;;11.20;58.40;;;;;;4995044;28;20510;-70
2021/11/23 09:06:52;;;;;;;5.80;2.50;;;11.20;58.40;;;;;;4995011;28;20030;-70
2021/11/23 09:09:23;;;;;;;4.00;2.17;;;11.30;58.30;;;;;;4994887;28;20533;-69
2021/11/23 09:11:50;;;;;;;3.88;2.03;;;11.30;58.30;;;;;;4994577;28;20053;-69
2021/11/23 09:14:15;;;;;;;5.13;2.40;;;11.40;57.10;;;;;;4994201;28;20030;-68
2021/11/23 09:16:41;;;;;;;5.32;2.25;;;11.40;57.50;;;;;;4994689;28;20136;-69
2021/11/23 09:19:07;;;;;;;3.25;2.15;;;11.40;57.60;;;;;;4994746;28;20065;-69
2021/11/23 09:21:34;;;;;;;3.63;2.08;;;11.50;57.00;;;;;;4994740;28;20029;-68
2021/11/23 09:24:00;;;;;;;5.25;1.95;;;11.50;57.00;;;;;;4976699;28;20038;-68
2021/11/23 09:26:26;;;;;;;3.45;2.08;;;11.60;56.90;;;;;;4994875;28;20054;-69
2021/11/23 09:28:53;;;;;;;4.35;2.20;;;11.60;56.70;;;;;;4994658;28;20023;-69
2021/11/23 09:31:19;;;;;;;4.55;2.15;;;11.60;56.40;;;;;;4994142;28;20037;-68
2021/11/23 09:33:45;;;;;;;4.30;2.08;;;11.60;56.00;;;;;;4977247;28;20030;-69
2021/11/23 09:36:12;;;;;;;5.07;2.20;;;11.60;55.80;;;;;;4994703;28;20027;-69
2021/11/23 09:38:38;;;;;;;5.25;2.25;;;11.60;56.10;;;;;;4994312;28;20027;-69
2021/11/23 09:41:05;;;;;;;3.95;1.90;;;11.60;56.30;;;;;;4994080;28;20026;-69
2021/11/23 09:43:31;;;;;;;3.30;1.90;;;11.70;56.20;;;;;;4994477;28;20054;-69
2021/11/23 09:45:57;;;;;;;3.45;2.20;;;11.70;56.00;;;;;;4994217;28;20121;-69
2021/11/23 09:48:23;;;;;;;3.03;2.08;;;11.80;55.80;;;;;;4994221;28;20611;-69
2021/11/23 09:50:50;;;;;;;3.72;2.22;;;11.90;56.00;;;;;;4994066;28;20113;-69
2021/11/23 09:53:21;;;;;;;3.20;2.15;;;12.00;55.70;;;;;;4994156;28;20022;-69
2021/11/23 09:55:50;;;;;;;4.45;2.20;;;12.00;55.10;;;;;;4994195;28;20031;-69
2021/11/23 09:58:16;;;;;;;3.38;2.20;;;12.10;54.60;;;;;;4994095;28;20157;-69
2021/11/23 10:00:45;;;;;;;3.90;2.10;;;12.10;54.20;;;;;;4993526;28;20137;-69
2021/11/23 10:03:23;;;;;;;3.03;2.00;;;12.00;54.20;;;;;;4993961;28;20069;-69
2021/11/23 10:05:51;;;;;;;3.95;2.42;;;12.00;53.70;;;;;;4993947;28;20092;-69
2021/11/23 10:08:19;;;;;;;4.80;2.30;;;12.00;54.60;;;;;;4993991;28;20492;-70
2021/11/23 10:10:53;;;;;;;6.63;2.00;;;12.10;55.30;;;;;;4993242;28;20030;-69
2021/11/23 10:13:20;;;;;;;3.40;2.10;;;12.10;54.30;;;;;;4991935;28;20117;-69
2021/11/23 10:15:48;;;;;;;3.55;1.90;;;12.20;54.30;;;;;;4993653;28;20471;-70
2021/11/23 10:18:15;;;;;;;3.95;2.00;;;12.30;54.80;;;;;;4993636;28;20525;-69
2021/11/23 10:20:46;;;;;;;3.85;1.98;;;12.30;54.90;;;;;;4992684;28;20796;-68
2021/11/23 10:23:16;;;;;;;3.03;2.10;;;12.40;54.60;;;;;;4990904;28;20085;-71
2021/11/23 10:25:42;;;;;;;2.53;1.88;;;12.40;54.60;;;;;;4990397;28;20112;-72
2021/11/23 10:28:08;;;;;;;3.80;1.70;;;12.60;54.60;;;;;;4992215;28;20033;-69
2021/11/23 10:30:39;;;;;;;6.07;2.05;;;12.60;54.50;;;;;;4993127;28;20034;-70
2021/11/23 10:33:06;;;;;;;3.08;2.22;;;12.70;54.60;;;;;;4992809;28;20058;-70
2021/11/23 10:35:31;;;;;;;3.50;1.95;;;12.80;53.00;;;;;;4992721;28;20027;-71
2021/11/23 10:37:59;;;;;;;5.20;2.08;;;12.80;52.60;;;;;;4993337;28;20101;-68
2021/11/23 10:40:28;;;;;;;4.93;2.15;;;12.90;52.10;;;;;;4993607;28;20026;-69
2021/11/23 10:42:59;;;;;;;2.63;1.60;;;12.90;52.30;;;;;;4992996;28;20058;-69
2021/11/23 10:45:32;;;;;;;2.50;1.90;;;13.00;52.70;;;;;;4991344;28;20037;-68
2021/11/23 10:48:01;;;;;;;5.25;2.00;;;13.10;51.50;;;;;;4990601;28;20027;-68
2021/11/23 10:50:27;;;;;;;5.32;2.33;;;13.10;51.40;;;;;;4991212;28;20034;-68
2021/11/23 10:52:53;;;;;;;6.15;2.05;;;13.10;52.00;;;;;;4993395;28;20421;-68
2021/11/23 10:55:24;;;;;;;5.00;1.95;;;13.10;52.00;;;;;;4993546;28;20026;-69
2021/11/23 10:57:52;;;;;;;3.83;2.22;;;13.10;51.30;;;;;;4993517;28;20031;-68
2021/11/23 11:00:18;;;;;;;2.83;1.80;;;13.10;51.90;;;;;;4992562;28;20411;-68
2021/11/23 11:02:44;;;;;;;3.35;1.95;;;13.10;51.70;;;;;;4993356;28;20503;-68
2021/11/23 11:05:14;;;;;;;4.60;1.80;;;13.20;51.90;;;;;;4992756;28;20035;-68
2021/11/23 11:07:40;;;;;;;2.45;2.00;;;13.30;51.70;;;;;;4993084;28;20128;-69
2021/11/23 11:10:08;;;;;;;4.97;2.22;;;13.30;51.30;;;;;;4992849;28;20062;-68
2021/11/23 11:12:37;;;;;;;4.50;2.13;;;13.40;52.10;;;;;;4993185;28;20022;-69
2021/11/23 11:15:07;;;;;;;5.45;2.03;;;13.40;51.30;;;;;;4993045;28;20040;-68
2021/11/23 11:17:37;;;;;;;3.38;2.00;;;13.50;51.20;;;;;;4992832;28;20027;-68
2021/11/23 11:20:05;;;;;;;3.92;2.10;;;13.50;50.30;;;;;;4992394;28;20109;-69
2021/11/23 11:22:31;;;;;;;4.70;1.77;;;13.50;49.30;;;;;;4992981;28;20408;-69
2021/11/23 11:27:31;;;;;;;2.80;1.90;;;13.40;50.70;;;;;;4993193;28;20456;-68
2021/11/23 11:30:24;;;;;;;2.75;1.73;;;13.40;51.20;;;;;;4992750;28;20026;-70
2021/11/23 11:32:52;;;;;;;4.43;2.30;;;13.40;50.80;;;;;;4993220;28;20630;-71
2021/11/23 11:35:36;;;;;;;2.60;1.90;;;13.40;50.10;;;;;;4993024;28;20027;-68
2021/11/23 11:38:05;;;;;;;3.38;2.10;;;13.40;49.20;;;;;;4996245;28;20372;-69
2021/11/23 11:40:36;;;;;;;5.45;1.65;;;13.50;50.20;;;;;;4996396;28;20509;-71
2021/11/23 11:43:05;;;;;;;3.28;1.88;;;13.40;48.60;;;;;;4996351;28;20023;-71
2021/11/23 11:45:46;;;;;;;4.00;2.00;;;13.50;49.10;;;;;;4995716;28;20490;-72
2021/11/23 11:48:23;;;;;;;2.78;1.77;;;13.50;49.00;;;;;;4996022;28;20101;-71
2021/11/23 11:51:09;;;;;;;7.13;1.45;;;13.50;48.70;;;;;;4995557;28;20034;-72
2021/11/23 11:53:42;;;;;;;3.53;2.25;;;13.50;48.90;;;;;;4995813;28;20034;-72
2021/11/23 11:56:10;;;;;;;4.15;1.92;;;13.50;48.80;;;;;;4995967;28;20030;-72
2021/11/23 11:58:53;;;;;;;4.13;1.67;;;13.50;47.60;;;;;;4995611;28;20449;-72
2021/11/23 12:01:18;;;;;;;;;;;13.50;47.80;;;;;;4958471;28;20059;-72
2021/11/23 12:03:44;;;;;;;3.17;1.80;;;13.50;47.90;;;;;;4955911;29;20359;-72
2021/11/23 12:06:10;;;;;;;2.58;1.70;;;13.50;47.60;;;;;;4957308;28;20050;-72
2021/11/23 12:08:37;;;;;;;4.40;1.73;;;13.40;48.00;;;;;;4957343;29;20186;-72
2021/11/23 12:11:06;;;;;;;3.67;2.00;;;13.40;47.80;;;;;;4956788;28;20031;-72
2021/11/23 12:13:50;;;;;;;3.05;2.10;;;13.40;48.30;;;;;;4956437;28;20030;-69
2021/11/23 12:16:37;;;;;;;5.07;1.75;;;13.40;47.90;;;;;;4956572;29;20039;-69
2021/11/23 12:19:25;;;;;;;4.00;2.00;;;13.40;47.50;;;;;;4956854;28;20030;-69
2021/11/23 12:21:55;;;;;;;2.78;2.00;;;13.40;47.90;;;;;;4956960;28;20090;-69
2021/11/23 12:24:25;;;;;;;4.18;1.67;;;13.40;47.30;;;;;;4956309;28;20035;-68
2021/11/23 12:26:54;;;;;;;5.60;1.92;;;13.40;47.60;;;;;;4956666;29;20031;-69
2021/11/23 12:29:27;;;;;;;4.60;1.77;;;13.40;46.90;;;;;;4957042;28;20058;-69
2021/11/23 12:31:52;;;;;;;3.25;1.85;;;13.40;47.10;;;;;;4956819;28;20031;-72
2021/11/23 12:34:18;;;;;;;3.80;1.80;;;13.40;46.60;;;;;;4958671;28;20098;-69
2021/11/23 12:36:53;;;;;;;2.88;1.75;;;13.40;46.50;;;;;;4970530;28;20034;-72
2021/11/23 12:39:24;;;;;;;3.53;1.70;;;13.40;47.40;;;;;;4976072;28;20030;-72
2021/11/23 12:41:59;;;;;;;4.57;1.83;;;13.40;47.00;;;;;;4974865;28;20027;-72
2021/11/23 12:44:33;;;;;;;2.35;1.65;;;13.40;46.90;;;;;;4975533;28;20042;-72
2021/11/23 12:47:02;;;;;;;3.92;2.00;;;13.40;46.70;;;;;;4975732;28;20031;-72
2021/11/23 12:49:34;;;;;;;5.90;1.80;;;13.40;46.80;;;;;;4975672;28;20038;-72
2021/11/23 12:52:04;;;;;;;2.08;1.58;;;13.40;45.70;;;;;;4974030;28;20103;-72
2021/11/23 12:54:38;;;;;;;2.35;1.48;;;13.40;45.90;;;;;;4975545;28;20087;-72